sensor_id;sensor_type;location;lat;lon;timestamp;P1;durP1;ratioP1;P2;durP2;ratioP2
4808;SDS011;2418;49.930;8.606;2024-02-16T00:01:20;8.67;;;4.13;;
4808;SDS011;2418;49.930;8.606;2024-02-16T00:03:46;9.15;;;3.80;;
4808;SDS011;2418;49.930;8.606;2024-02-16T00:06:12;4.50;;;4.10;;
4808;SDS011;2418;49.930;8.606;2024-02-16T00:08:38;4.45;;;4.05;;
4808;SDS011;2418;49.930;8.606;2024-02-16T00:11:04;5.45;;;3.40;;
4808;SDS011;2418;49.930;8.606;2024-02-16T00:13:30;6.10;;;3.40;;
4808;SDS011;2418;49.930;8.606;2024-02-16T00:15:57;4.28;;;3.25;;
4808;SDS011;2418;49.930;8.606;2024-02-16T00:18:23;3.88;;;3.50;;
4808;SDS011;2418;49.930;8.606;2024-02-16T00:20:49;3.90;;;3.00;;
4808;SDS011;2418;49.930;8.606;2024-02-16T00:23:15;6.55;;;3.30;;
4808;SDS011;2418;49.930;8.606;2024-02-16T00:25:41;7.65;;;3.70;;
4808;SDS011;2418;49.930;8.606;2024-02-16T00:28:08;7.65;;;4.22;;
4808;SDS011;2418;49.930;8.606;2024-02-16T00:30:35;7.63;;;3.67;;
4808;SDS011;2418;49.930;8.606;2024-02-16T00:33:01;5.25;;;4.10;;
4808;SDS011;2418;49.930;8.606;2024-02-16T00:35:27;4.10;;;3.80;;
4808;SDS011;2418;49.930;8.606;2024-02-16T00:37:55;10.07;;;3.90;;
4808;SDS011;2418;49.930;8.606;2024-02-16T00:40:21;3.88;;;3.67;;
4808;SDS011;2418;49.930;8.606;2024-02-16T00:42:47;4.32;;;3.63;;
4808;SDS011;2418;49.930;8.606;2024-02-16T00:45:13;6.80;;;3.60;;
4808;SDS011;2418;49.930;8.606;2024-02-16T00:47:39;4.05;;;3.70;;
4808;SDS011;2418;49.930;8.606;2024-02-16T00:50:05;4.47;;;3.47;;
4808;SDS011;2418;49.930;8.606;2024-02-16T00:52:34;12.10;;;3.45;;
4808;SDS011;2418;49.930;8.606;2024-02-16T00:55:01;6.45;;;3.90;;
4808;SDS011;2418;49.930;8.606;2024-02-16T00:57:28;8.90;;;3.73;;
4808;SDS011;2418;49.930;8.606;2024-02-16T00:59:54;3.83;;;3.53;;
4808;SDS011;2418;49.930;8.606;2024-02-16T01:02:20;3.92;;;3.55;;
4808;SDS011;2418;49.930;8.606;2024-02-16T01:04:47;4.93;;;3.00;;
4808;SDS011;2418;49.930;8.606;2024-02-16T01:07:15;10.30;;;3.58;;
4808;SDS011;2418;49.930;8.606;2024-02-16T01:09:41;4.27;;;3.07;;
4808;SDS011;2418;49.930;8.606;2024-02-16T01:12:07;4.68;;;3.35;;
4808;SDS011;2418;49.930;8.606;2024-02-16T01:14:33;3.58;;;3.25;;
4808;SDS011;2418;49.930;8.606;2024-02-16T01:16:59;4.80;;;3.47;;
4808;SDS011;2418;49.930;8.606;2024-02-16T01:19:25;10.23;;;3.60;;
4808;SDS011;2418;49.930;8.606;2024-02-16T01:21:51;4.03;;;3.63;;
4808;SDS011;2418;49.930;8.606;2024-02-16T01:24:18;4.70;;;3.20;;
4808;SDS011;2418;49.930;8.606;2024-02-16T01:26:46;4.85;;;3.42;;
4808;SDS011;2418;49.930;8.606;2024-02-16T01:29:12;3.38;;;3.13;;
4808;SDS011;2418;49.930;8.606;2024-02-16T01:31:38;3.80;;;2.95;;
4808;SDS011;2418;49.930;8.606;2024-02-16T01:34:04;4.45;;;3.03;;
4808;SDS011;2418;49.930;8.606;2024-02-16T01:36:29;3.63;;;3.30;;
4808;SDS011;2418;49.930;8.606;2024-02-16T01:38:55;4.13;;;2.83;;
4808;SDS011;2418;49.930;8.606;2024-02-16T01:41:21;3.28;;;3.05;;
4808;SDS011;2418;49.930;8.606;2024-02-16T01:43:47;5.93;;;3.20;;
4808;SDS011;2418;49.930;8.606;2024-02-16T01:46:13;5.95;;;3.20;;
4808;SDS011;2418;49.930;8.606;2024-02-16T01:48:39;3.38;;;3.10;;
4808;SDS011;2418;49.930;8.606;2024-02-16T01:51:06;3.28;;;2.90;;
4808;SDS011;2418;49.930;8.606;2024-02-16T01:53:33;6.53;;;3.95;;
4808;SDS011;2418;49.930;8.606;2024-02-16T01:55:59;3.47;;;3.13;;
4808;SDS011;2418;49.930;8.606;2024-02-16T01:58:25;4.40;;;3.00;;
4808;SDS011;2418;49.930;8.606;2024-02-16T02:00:52;4.45;;;3.20;;
4808;SDS011;2418;49.930;8.606;2024-02-16T02:03:18;4.00;;;3.40;;
4808;SDS011;2418;49.930;8.606;2024-02-16T02:05:44;5.65;;;3.67;;
4808;SDS011;2418;49.930;8.606;2024-02-16T02:08:11;3.63;;;3.38;;
4808;SDS011;2418;49.930;8.606;2024-02-16T02:10:37;6.90;;;3.30;;
4808;SDS011;2418;49.930;8.606;2024-02-16T02:13:03;3.85;;;3.50;;
4808;SDS011;2418;49.930;8.606;2024-02-16T02:15:29;8.30;;;3.30;;
4808;SDS011;2418;49.930;8.606;2024-02-16T02:17:55;3.88;;;3.47;;
4808;SDS011;2418;49.930;8.606;2024-02-16T02:20:23;5.30;;;3.67;;
4808;SDS011;2418;49.930;8.606;2024-02-16T02:22:49;4.50;;;3.30;;
4808;SDS011;2418;49.930;8.606;2024-02-16T02:25:15;6.57;;;3.40;;
4808;SDS011;2418;49.930;8.606;2024-02-16T02:27:41;4.10;;;3.50;;
4808;SDS011;2418;49.930;8.606;2024-02-16T02:30:07;5.18;;;3.63;;
4808;SDS011;2418;49.930;8.606;2024-02-16T02:32:34;3.28;;;3.00;;
4808;SDS011;2418;49.930;8.606;2024-02-16T02:35:00;8.00;;;3.20;;
4808;SDS011;2418;49.930;8.606;2024-02-16T02:37:27;4.10;;;3.80;;
4808;SDS011;2418;49.930;8.606;2024-02-16T02:39:53;4.63;;;3.42;;
4808;SDS011;2418;49.930;8.606;2024-02-16T02:42:19;8.88;;;4.00;;
4808;SDS011;2418;49.930;8.606;2024-02-16T02:44:45;3.97;;;3.67;;
4808;SDS011;2418;49.930;8.606;2024-02-16T02:47:15;9.00;;;4.00;;
4808;SDS011;2418;49.930;8.606;2024-02-16T02:49:42;6.55;;;4.20;;
4808;SDS011;2418;49.930;8.606;2024-02-16T02:52:08;6.60;;;4.22;;
4808;SDS011;2418;49.930;8.606;2024-02-16T02:54:34;7.30;;;4.30;;
4808;SDS011;2418;49.930;8.606;2024-02-16T02:57:01;8.80;;;4.15;;
4808;SDS011;2418;49.930;8.606;2024-02-16T02:59:27;7.53;;;3.88;;
4808;SDS011;2418;49.930;8.606;2024-02-16T03:01:52;4.90;;;4.60;;
4808;SDS011;2418;49.930;8.606;2024-02-16T03:04:18;4.47;;;4.17;;
4808;SDS011;2418;49.930;8.606;2024-02-16T03:06:44;4.95;;;4.55;;
4808;SDS011;2418;49.930;8.606;2024-02-16T03:09:11;5.65;;;4.28;;
4808;SDS011;2418;49.930;8.606;2024-02-16T03:11:37;6.82;;;4.35;;
4808;SDS011;2418;49.930;8.606;2024-02-16T03:14:04;4.70;;;4.30;;
4808;SDS011;2418;49.930;8.606;2024-02-16T03:16:30;5.45;;;4.10;;
4808;SDS011;2418;49.930;8.606;2024-02-16T03:18:56;4.25;;;3.97;;
4808;SDS011;2418;49.930;8.606;2024-02-16T03:21:22;6.03;;;4.20;;
4808;SDS011;2418;49.930;8.606;2024-02-16T03:23:49;5.95;;;4.30;;
4808;SDS011;2418;49.930;8.606;2024-02-16T03:26:15;4.47;;;4.20;;
4808;SDS011;2418;49.930;8.606;2024-02-16T03:28:43;4.70;;;4.30;;
4808;SDS011;2418;49.930;8.606;2024-02-16T03:31:14;7.50;;;4.10;;
4808;SDS011;2418;49.930;8.606;2024-02-16T03:33:41;6.25;;;4.50;;
4808;SDS011;2418;49.930;8.606;2024-02-16T03:36:08;4.07;;;3.78;;
4808;SDS011;2418;49.930;8.606;2024-02-16T03:38:34;5.13;;;4.00;;
4808;SDS011;2418;49.930;8.606;2024-02-16T03:41:00;3.83;;;3.53;;
4808;SDS011;2418;49.930;8.606;2024-02-16T03:43:25;7.95;;;3.83;;
4808;SDS011;2418;49.930;8.606;2024-02-16T03:45:51;6.07;;;4.90;;
4808;SDS011;2418;49.930;8.606;2024-02-16T03:48:17;4.90;;;4.30;;
4808;SDS011;2418;49.930;8.606;2024-02-16T03:50:43;5.43;;;4.10;;
4808;SDS011;2418;49.930;8.606;2024-02-16T03:53:11;8.20;;;4.82;;
4808;SDS011;2418;49.930;8.606;2024-02-16T03:55:37;6.35;;;4.63;;
4808;SDS011;2418;49.930;8.606;2024-02-16T03:58:03;6.72;;;4.00;;
4808;SDS011;2418;49.930;8.606;2024-02-16T04:00:29;4.47;;;4.07;;
4808;SDS011;2418;49.930;8.606;2024-02-16T04:02:57;4.60;;;4.20;;
4808;SDS011;2418;49.930;8.606;2024-02-16T04:05:24;4.85;;;4.53;;
4808;SDS011;2418;49.930;8.606;2024-02-16T04:07:55;6.55;;;4.10;;
4808;SDS011;2418;49.930;8.606;2024-02-16T04:10:26;9.27;;;5.07;;
4808;SDS011;2418;49.930;8.606;2024-02-16T04:12:53;4.63;;;4.22;;
4808;SDS011;2418;49.930;8.606;2024-02-16T04:15:19;7.95;;;3.90;;
4808;SDS011;2418;49.930;8.606;2024-02-16T04:17:45;4.45;;;4.00;;
4808;SDS011;2418;49.930;8.606;2024-02-16T04:20:11;5.78;;;3.60;;
4808;SDS011;2418;49.930;8.606;2024-02-16T04:22:37;7.57;;;4.57;;
4808;SDS011;2418;49.930;8.606;2024-02-16T04:25:03;6.85;;;3.65;;
4808;SDS011;2418;49.930;8.606;2024-02-16T04:27:30;4.20;;;3.30;;
4808;SDS011;2418;49.930;8.606;2024-02-16T04:29:56;4.10;;;3.10;;
4808;SDS011;2418;49.930;8.606;2024-02-16T04:32:22;4.32;;;3.40;;
4808;SDS011;2418;49.930;8.606;2024-02-16T04:34:50;3.90;;;3.58;;
4808;SDS011;2418;49.930;8.606;2024-02-16T04:37:17;4.95;;;3.75;;
4808;SDS011;2418;49.930;8.606;2024-02-16T04:39:46;5.80;;;3.65;;
4808;SDS011;2418;49.930;8.606;2024-02-16T04:42:11;6.28;;;3.78;;
4808;SDS011;2418;49.930;8.606;2024-02-16T04:44:37;4.35;;;4.00;;
4808;SDS011;2418;49.930;8.606;2024-02-16T04:47:04;6.18;;;4.00;;
4808;SDS011;2418;49.930;8.606;2024-02-16T04:49:30;10.95;;;4.60;;
4808;SDS011;2418;49.930;8.606;2024-02-16T04:51:56;8.57;;;4.13;;
4808;SDS011;2418;49.930;8.606;2024-02-16T04:54:21;9.98;;;4.70;;
4808;SDS011;2418;49.930;8.606;2024-02-16T04:56:48;6.70;;;4.07;;
4808;SDS011;2418;49.930;8.606;2024-02-16T04:59:14;4.00;;;3.80;;
4808;SDS011;2418;49.930;8.606;2024-02-16T05:01:40;5.73;;;4.30;;
4808;SDS011;2418;49.930;8.606;2024-02-16T05:04:06;4.93;;;4.50;;
4808;SDS011;2418;49.930;8.606;2024-02-16T05:06:32;5.80;;;3.80;;
4808;SDS011;2418;49.930;8.606;2024-02-16T05:08:58;5.55;;;3.72;;
4808;SDS011;2418;49.930;8.606;2024-02-16T05:11:24;4.38;;;4.10;;
4808;SDS011;2418;49.930;8.606;2024-02-16T05:13:51;4.63;;;4.30;;
4808;SDS011;2418;49.930;8.606;2024-02-16T05:16:17;4.50;;;4.10;;
4808;SDS011;2418;49.930;8.606;2024-02-16T05:18:43;4.93;;;4.23;;
4808;SDS011;2418;49.930;8.606;2024-02-16T05:21:09;10.77;;;4.00;;
4808;SDS011;2418;49.930;8.606;2024-02-16T05:23:35;4.97;;;4.57;;
4808;SDS011;2418;49.930;8.606;2024-02-16T05:26:01;6.38;;;4.45;;
4808;SDS011;2418;49.930;8.606;2024-02-16T05:28:27;5.95;;;5.45;;
4808;SDS011;2418;49.930;8.606;2024-02-16T05:30:54;6.30;;;5.70;;
4808;SDS011;2418;49.930;8.606;2024-02-16T05:33:20;7.30;;;5.87;;
4808;SDS011;2418;49.930;8.606;2024-02-16T05:35:46;5.43;;;4.88;;
4808;SDS011;2418;49.930;8.606;2024-02-16T05:38:20;8.25;;;6.72;;
4808;SDS011;2418;49.930;8.606;2024-02-16T05:40:57;5.72;;;5.18;;
4808;SDS011;2418;49.930;8.606;2024-02-16T05:43:23;5.35;;;5.05;;
4808;SDS011;2418;49.930;8.606;2024-02-16T05:45:49;7.28;;;4.43;;
4808;SDS011;2418;49.930;8.606;2024-02-16T05:48:15;6.57;;;3.92;;
4808;SDS011;2418;49.930;8.606;2024-02-16T05:50:41;10.35;;;5.22;;
4808;SDS011;2418;49.930;8.606;2024-02-16T05:53:08;4.80;;;4.60;;
4808;SDS011;2418;49.930;8.606;2024-02-16T05:55:35;7.23;;;6.53;;
4808;SDS011;2418;49.930;8.606;2024-02-16T05:58:01;6.85;;;5.13;;
4808;SDS011;2418;49.930;8.606;2024-02-16T06:00:31;9.52;;;5.07;;
4808;SDS011;2418;49.930;8.606;2024-02-16T06:02:57;6.55;;;4.95;;
4808;SDS011;2418;49.930;8.606;2024-02-16T06:05:24;6.78;;;4.95;;
4808;SDS011;2418;49.930;8.606;2024-02-16T06:07:50;7.72;;;4.90;;
4808;SDS011;2418;49.930;8.606;2024-02-16T06:10:16;6.30;;;5.10;;
4808;SDS011;2418;49.930;8.606;2024-02-16T06:12:43;9.35;;;6.22;;
4808;SDS011;2418;49.930;8.606;2024-02-16T06:15:09;7.82;;;5.28;;
4808;SDS011;2418;49.930;8.606;2024-02-16T06:17:35;5.35;;;4.93;;
4808;SDS011;2418;49.930;8.606;2024-02-16T06:20:05;8.15;;;5.25;;
4808;SDS011;2418;49.930;8.606;2024-02-16T06:22:34;6.03;;;5.20;;
4808;SDS011;2418;49.930;8.606;2024-02-16T06:25:00;9.07;;;4.93;;
4808;SDS011;2418;49.930;8.606;2024-02-16T06:27:26;5.88;;;4.80;;
4808;SDS011;2418;49.930;8.606;2024-02-16T06:29:52;9.23;;;5.60;;
4808;SDS011;2418;49.930;8.606;2024-02-16T06:32:18;6.25;;;5.40;;
4808;SDS011;2418;49.930;8.606;2024-02-16T06:34:44;7.07;;;5.90;;
4808;SDS011;2418;49.930;8.606;2024-02-16T06:37:11;7.30;;;4.90;;
4808;SDS011;2418;49.930;8.606;2024-02-16T06:39:37;5.68;;;5.18;;
4808;SDS011;2418;49.930;8.606;2024-02-16T06:42:03;7.30;;;5.10;;
4808;SDS011;2418;49.930;8.606;2024-02-16T06:44:29;5.60;;;5.20;;
4808;SDS011;2418;49.930;8.606;2024-02-16T06:46:55;7.80;;;5.20;;
4808;SDS011;2418;49.930;8.606;2024-02-16T06:49:21;5.97;;;5.05;;
4808;SDS011;2418;49.930;8.606;2024-02-16T06:51:47;8.32;;;4.82;;
4808;SDS011;2418;49.930;8.606;2024-02-16T06:54:13;6.10;;;5.20;;
4808;SDS011;2418;49.930;8.606;2024-02-16T06:56:39;6.82;;;5.05;;
4808;SDS011;2418;49.930;8.606;2024-02-16T06:59:05;5.40;;;4.73;;
4808;SDS011;2418;49.930;8.606;2024-02-16T07:01:31;10.82;;;5.30;;
4808;SDS011;2418;49.930;8.606;2024-02-16T07:03:57;6.03;;;4.65;;
4808;SDS011;2418;49.930;8.606;2024-02-16T07:06:23;5.78;;;5.18;;
4808;SDS011;2418;49.930;8.606;2024-02-16T07:08:49;8.43;;;5.07;;
4808;SDS011;2418;49.930;8.606;2024-02-16T07:11:15;4.90;;;4.50;;
4808;SDS011;2418;49.930;8.606;2024-02-16T07:13:41;4.78;;;4.38;;
4808;SDS011;2418;49.930;8.606;2024-02-16T07:16:07;4.90;;;4.50;;
4808;SDS011;2418;49.930;8.606;2024-02-16T07:18:33;4.20;;;3.90;;
4808;SDS011;2418;49.930;8.606;2024-02-16T07:20:59;4.80;;;4.40;;
4808;SDS011;2418;49.930;8.606;2024-02-16T07:23:26;6.13;;;4.30;;
4808;SDS011;2418;49.930;8.606;2024-02-16T07:25:52;4.82;;;4.43;;
4808;SDS011;2418;49.930;8.606;2024-02-16T07:28:25;5.65;;;4.47;;
4808;SDS011;2418;49.930;8.606;2024-02-16T07:30:54;6.28;;;4.90;;
4808;SDS011;2418;49.930;8.606;2024-02-16T07:33:21;5.10;;;4.57;;
4808;SDS011;2418;49.930;8.606;2024-02-16T07:35:49;6.50;;;4.50;;
4808;SDS011;2418;49.930;8.606;2024-02-16T07:38:15;6.05;;;4.90;;
4808;SDS011;2418;49.930;8.606;2024-02-16T07:40:41;5.90;;;5.40;;
4808;SDS011;2418;49.930;8.606;2024-02-16T07:43:10;5.20;;;4.70;;
4808;SDS011;2418;49.930;8.606;2024-02-16T07:45:36;5.28;;;4.88;;
4808;SDS011;2418;49.930;8.606;2024-02-16T07:48:02;8.90;;;4.95;;
4808;SDS011;2418;49.930;8.606;2024-02-16T07:50:30;5.15;;;4.70;;
4808;SDS011;2418;49.930;8.606;2024-02-16T07:52:56;5.00;;;4.60;;
4808;SDS011;2418;49.930;8.606;2024-02-16T07:55:23;5.35;;;4.40;;
4808;SDS011;2418;49.930;8.606;2024-02-16T07:57:49;4.97;;;4.63;;
4808;SDS011;2418;49.930;8.606;2024-02-16T08:00:15;5.32;;;4.82;;
4808;SDS011;2418;49.930;8.606;2024-02-16T08:02:42;20.42;;;5.30;;
4808;SDS011;2418;49.930;8.606;2024-02-16T08:05:11;5.97;;;5.30;;
4808;SDS011;2418;49.930;8.606;2024-02-16T08:07:41;6.45;;;5.00;;
4808;SDS011;2418;49.930;8.606;2024-02-16T08:10:10;10.80;;;4.93;;
4808;SDS011;2418;49.930;8.606;2024-02-16T08:12:37;12.98;;;5.53;;
4808;SDS011;2418;49.930;8.606;2024-02-16T08:15:03;8.38;;;5.30;;
4808;SDS011;2418;49.930;8.606;2024-02-16T08:17:32;5.63;;;5.03;;
4808;SDS011;2418;49.930;8.606;2024-02-16T08:19:58;6.28;;;5.50;;
4808;SDS011;2418;49.930;8.606;2024-02-16T08:22:24;5.80;;;5.30;;
4808;SDS011;2418;49.930;8.606;2024-02-16T08:24:50;6.25;;;5.22;;
4808;SDS011;2418;49.930;8.606;2024-02-16T08:27:17;5.72;;;5.18;;
4808;SDS011;2418;49.930;8.606;2024-02-16T08:29:43;6.00;;;5.40;;
4808;SDS011;2418;49.930;8.606;2024-02-16T08:32:09;6.07;;;5.47;;
4808;SDS011;2418;49.930;8.606;2024-02-16T08:34:35;6.72;;;5.47;;
4808;SDS011;2418;49.930;8.606;2024-02-16T08:37:06;6.15;;;5.50;;
4808;SDS011;2418;49.930;8.606;2024-02-16T08:39:33;5.20;;;4.80;;
4808;SDS011;2418;49.930;8.606;2024-02-16T08:41:59;5.25;;;4.70;;
4808;SDS011;2418;49.930;8.606;2024-02-16T08:44:25;6.07;;;5.00;;
4808;SDS011;2418;49.930;8.606;2024-02-16T08:46:52;4.78;;;4.47;;
4808;SDS011;2418;49.930;8.606;2024-02-16T08:49:19;6.28;;;5.03;;
4808;SDS011;2418;49.930;8.606;2024-02-16T08:51:45;7.78;;;5.20;;
4808;SDS011;2418;49.930;8.606;2024-02-16T08:54:11;5.03;;;4.70;;
4808;SDS011;2418;49.930;8.606;2024-02-16T08:56:37;6.13;;;5.18;;
4808;SDS011;2418;49.930;8.606;2024-02-16T08:59:04;8.30;;;5.10;;
4808;SDS011;2418;49.930;8.606;2024-02-16T09:01:34;11.20;;;5.43;;
4808;SDS011;2418;49.930;8.606;2024-02-16T09:04:00;6.55;;;5.35;;
4808;SDS011;2418;49.930;8.606;2024-02-16T09:06:27;5.40;;;5.00;;
4808;SDS011;2418;49.930;8.606;2024-02-16T09:08:53;5.80;;;5.20;;
4808;SDS011;2418;49.930;8.606;2024-02-16T09:11:19;5.50;;;5.10;;
4808;SDS011;2418;49.930;8.606;2024-02-16T09:13:45;6.38;;;5.30;;
4808;SDS011;2418;49.930;8.606;2024-02-16T09:16:11;6.03;;;5.35;;
4808;SDS011;2418;49.930;8.606;2024-02-16T09:18:38;6.53;;;5.30;;
4808;SDS011;2418;49.930;8.606;2024-02-16T09:21:04;11.75;;;5.65;;
4808;SDS011;2418;49.930;8.606;2024-02-16T09:23:34;5.30;;;4.80;;
4808;SDS011;2418;49.930;8.606;2024-02-16T09:26:00;8.20;;;5.40;;
4808;SDS011;2418;49.930;8.606;2024-02-16T09:28:27;8.23;;;5.00;;
4808;SDS011;2418;49.930;8.606;2024-02-16T09:30:54;8.85;;;5.40;;
4808;SDS011;2418;49.930;8.606;2024-02-16T09:33:20;10.18;;;5.70;;
4808;SDS011;2418;49.930;8.606;2024-02-16T09:35:49;5.57;;;4.88;;
4808;SDS011;2418;49.930;8.606;2024-02-16T09:38:15;6.27;;;5.53;;
4808;SDS011;2418;49.930;8.606;2024-02-16T09:40:41;9.48;;;6.60;;
4808;SDS011;2418;49.930;8.606;2024-02-16T09:43:07;19.50;;;6.97;;
4808;SDS011;2418;49.930;8.606;2024-02-16T09:45:33;6.40;;;5.80;;
4808;SDS011;2418;49.930;8.606;2024-02-16T09:48:00;9.25;;;6.20;;
4808;SDS011;2418;49.930;8.606;2024-02-16T09:50:27;8.73;;;5.88;;
4808;SDS011;2418;49.930;8.606;2024-02-16T09:52:54;6.10;;;5.50;;
4808;SDS011;2418;49.930;8.606;2024-02-16T09:55:20;7.80;;;5.20;;
4808;SDS011;2418;49.930;8.606;2024-02-16T09:57:47;11.87;;;5.40;;
4808;SDS011;2418;49.930;8.606;2024-02-16T10:00:13;6.82;;;5.20;;
4808;SDS011;2418;49.930;8.606;2024-02-16T10:02:43;8.10;;;6.20;;
4808;SDS011;2418;49.930;8.606;2024-02-16T10:05:30;6.40;;;5.80;;
4808;SDS011;2418;49.930;8.606;2024-02-16T10:07:58;9.32;;;5.30;;
4808;SDS011;2418;49.930;8.606;2024-02-16T10:10:26;8.70;;;5.43;;
4808;SDS011;2418;49.930;8.606;2024-02-16T10:13:03;5.60;;;5.10;;
4808;SDS011;2418;49.930;8.606;2024-02-16T10:15:37;6.30;;;4.95;;
4808;SDS011;2418;49.930;8.606;2024-02-16T10:18:06;7.53;;;4.80;;
4808;SDS011;2418;49.930;8.606;2024-02-16T10:20:33;15.93;;;5.17;;
4808;SDS011;2418;49.930;8.606;2024-02-16T10:23:03;6.10;;;5.20;;
4808;SDS011;2418;49.930;8.606;2024-02-16T10:25:29;5.63;;;4.30;;
4808;SDS011;2418;49.930;8.606;2024-02-16T10:27:55;5.03;;;4.60;;
4808;SDS011;2418;49.930;8.606;2024-02-16T10:30:23;5.53;;;4.85;;
4808;SDS011;2418;49.930;8.606;2024-02-16T10:32:49;6.70;;;4.90;;
4808;SDS011;2418;49.930;8.606;2024-02-16T10:35:15;4.90;;;4.50;;
4808;SDS011;2418;49.930;8.606;2024-02-16T10:37:43;5.18;;;4.68;;
4808;SDS011;2418;49.930;8.606;2024-02-16T10:40:10;4.85;;;4.50;;
4808;SDS011;2418;49.930;8.606;2024-02-16T10:42:39;5.10;;;4.70;;
4808;SDS011;2418;49.930;8.606;2024-02-16T10:45:06;9.23;;;4.88;;
4808;SDS011;2418;49.930;8.606;2024-02-16T10:47:32;5.85;;;4.75;;
4808;SDS011;2418;49.930;8.606;2024-02-16T10:49:58;5.38;;;4.88;;
4808;SDS011;2418;49.930;8.606;2024-02-16T10:52:24;5.65;;;5.25;;
4808;SDS011;2418;49.930;8.606;2024-02-16T10:54:50;5.40;;;4.70;;
4808;SDS011;2418;49.930;8.606;2024-02-16T10:57:16;9.00;;;4.63;;
4808;SDS011;2418;49.930;8.606;2024-02-16T10:59:44;5.05;;;4.55;;
4808;SDS011;2418;49.930;8.606;2024-02-16T11:02:15;5.82;;;5.43;;
4808;SDS011;2418;49.930;8.606;2024-02-16T11:04:45;10.03;;;5.20;;
4808;SDS011;2418;49.930;8.606;2024-02-16T11:07:11;8.68;;;4.18;;
4808;SDS011;2418;49.930;8.606;2024-02-16T11:09:38;7.45;;;4.30;;
4808;SDS011;2418;49.930;8.606;2024-02-16T11:12:05;8.05;;;4.47;;
4808;SDS011;2418;49.930;8.606;2024-02-16T11:14:37;7.63;;;3.92;;
4808;SDS011;2418;49.930;8.606;2024-02-16T11:17:07;6.93;;;4.32;;
4808;SDS011;2418;49.930;8.606;2024-02-16T11:19:36;7.60;;;4.63;;
4808;SDS011;2418;49.930;8.606;2024-02-16T11:22:06;6.00;;;4.85;;
4808;SDS011;2418;49.930;8.606;2024-02-16T11:24:42;6.60;;;4.88;;
4808;SDS011;2418;49.930;8.606;2024-02-16T11:27:09;5.15;;;4.55;;
4808;SDS011;2418;49.930;8.606;2024-02-16T11:29:36;4.47;;;4.07;;
4808;SDS011;2418;49.930;8.606;2024-02-16T11:32:03;4.78;;;4.47;;
4808;SDS011;2418;49.930;8.606;2024-02-16T11:34:30;5.38;;;4.65;;
4808;SDS011;2418;49.930;8.606;2024-02-16T11:36:56;9.45;;;4.80;;
4808;SDS011;2418;49.930;8.606;2024-02-16T11:39:23;6.28;;;4.65;;
4808;SDS011;2418;49.930;8.606;2024-02-16T11:42:09;8.52;;;4.22;;
4808;SDS011;2418;49.930;8.606;2024-02-16T11:44:36;5.38;;;4.30;;
4808;SDS011;2418;49.930;8.606;2024-02-16T11:47:05;8.48;;;4.50;;
4808;SDS011;2418;49.930;8.606;2024-02-16T11:49:37;6.30;;;4.45;;
4808;SDS011;2418;49.930;8.606;2024-02-16T11:52:07;6.78;;;3.45;;
4808;SDS011;2418;49.930;8.606;2024-02-16T11:54:33;4.15;;;3.85;;
4808;SDS011;2418;49.930;8.606;2024-02-16T11:57:07;5.20;;;3.60;;
4808;SDS011;2418;49.930;8.606;2024-02-16T11:59:32;3.60;;;2.75;;
4808;SDS011;2418;49.930;8.606;2024-02-16T12:01:59;5.43;;;2.77;;
4808;SDS011;2418;49.930;8.606;2024-02-16T12:04:25;2.78;;;2.58;;
4808;SDS011;2418;49.930;8.606;2024-02-16T12:06:52;3.75;;;2.55;;
4808;SDS011;2418;49.930;8.606;2024-02-16T12:09:18;12.05;;;3.92;;
4808;SDS011;2418;49.930;8.606;2024-02-16T12:11:46;5.93;;;2.90;;
4808;SDS011;2418;49.930;8.606;2024-02-16T12:14:12;3.35;;;2.42;;
4808;SDS011;2418;49.930;8.606;2024-02-16T12:16:38;3.78;;;2.92;;
4808;SDS011;2418;49.930;8.606;2024-02-16T12:19:04;5.78;;;3.08;;
4808;SDS011;2418;49.930;8.606;2024-02-16T12:21:31;5.30;;;3.50;;
4808;SDS011;2418;49.930;8.606;2024-02-16T12:23:57;2.55;;;2.45;;
4808;SDS011;2418;49.930;8.606;2024-02-16T12:26:23;4.25;;;3.17;;
4808;SDS011;2418;49.930;8.606;2024-02-16T12:28:49;3.67;;;2.90;;
4808;SDS011;2418;49.930;8.606;2024-02-16T12:31:20;3.28;;;3.00;;
4808;SDS011;2418;49.930;8.606;2024-02-16T12:33:47;4.75;;;2.63;;
4808;SDS011;2418;49.930;8.606;2024-02-16T12:36:13;5.40;;;3.30;;
4808;SDS011;2418;49.930;8.606;2024-02-16T12:38:39;3.97;;;3.67;;
4808;SDS011;2418;49.930;8.606;2024-02-16T12:41:06;6.30;;;4.00;;
4808;SDS011;2418;49.930;8.606;2024-02-16T12:43:33;4.22;;;3.92;;
4808;SDS011;2418;49.930;8.606;2024-02-16T12:46:00;5.15;;;3.72;;
4808;SDS011;2418;49.930;8.606;2024-02-16T12:48:29;6.90;;;4.32;;
4808;SDS011;2418;49.930;8.606;2024-02-16T12:50:55;6.97;;;3.80;;
4808;SDS011;2418;49.930;8.606;2024-02-16T12:53:22;3.65;;;2.75;;
4808;SDS011;2418;49.930;8.606;2024-02-16T12:55:50;3.10;;;2.75;;
4808;SDS011;2418;49.930;8.606;2024-02-16T12:58:16;5.60;;;3.10;;
4808;SDS011;2418;49.930;8.606;2024-02-16T13:00:42;2.83;;;2.63;;
4808;SDS011;2418;49.930;8.606;2024-02-16T13:03:08;2.80;;;2.65;;
4808;SDS011;2418;49.930;8.606;2024-02-16T13:05:34;3.85;;;2.67;;
4808;SDS011;2418;49.930;8.606;2024-02-16T13:08:00;2.90;;;2.60;;
4808;SDS011;2418;49.930;8.606;2024-02-16T13:10:26;6.32;;;2.80;;
4808;SDS011;2418;49.930;8.606;2024-02-16T13:12:52;3.30;;;2.40;;
4808;SDS011;2418;49.930;8.606;2024-02-16T13:15:18;2.92;;;2.40;;
4808;SDS011;2418;49.930;8.606;2024-02-16T13:17:44;6.80;;;2.80;;
4808;SDS011;2418;49.930;8.606;2024-02-16T13:20:10;2.90;;;2.70;;
4808;SDS011;2418;49.930;8.606;2024-02-16T13:22:36;5.38;;;2.60;;
4808;SDS011;2418;49.930;8.606;2024-02-16T13:25:05;8.10;;;2.47;;
4808;SDS011;2418;49.930;8.606;2024-02-16T13:27:34;3.28;;;2.63;;
4808;SDS011;2418;49.930;8.606;2024-02-16T13:30:00;3.42;;;3.13;;
4808;SDS011;2418;49.930;8.606;2024-02-16T13:32:26;3.03;;;2.80;;
4808;SDS011;2418;49.930;8.606;2024-02-16T13:34:53;3.77;;;2.40;;
4808;SDS011;2418;49.930;8.606;2024-02-16T13:37:19;6.00;;;2.67;;
4808;SDS011;2418;49.930;8.606;2024-02-16T13:39:45;2.80;;;2.60;;
4808;SDS011;2418;49.930;8.606;2024-02-16T13:42:12;5.07;;;3.30;;
4808;SDS011;2418;49.930;8.606;2024-02-16T13:44:41;5.10;;;3.13;;
4808;SDS011;2418;49.930;8.606;2024-02-16T13:47:07;4.57;;;2.38;;
4808;SDS011;2418;49.930;8.606;2024-02-16T13:49:33;2.50;;;2.40;;
4808;SDS011;2418;49.930;8.606;2024-02-16T13:51:59;3.78;;;2.50;;
4808;SDS011;2418;49.930;8.606;2024-02-16T13:54:26;2.50;;;2.30;;
4808;SDS011;2418;49.930;8.606;2024-02-16T13:56:52;7.60;;;2.50;;
4808;SDS011;2418;49.930;8.606;2024-02-16T13:59:19;4.97;;;2.83;;
4808;SDS011;2418;49.930;8.606;2024-02-16T14:01:46;3.65;;;2.65;;
4808;SDS011;2418;49.930;8.606;2024-02-16T14:04:13;4.30;;;2.70;;
4808;SDS011;2418;49.930;8.606;2024-02-16T14:06:39;6.70;;;3.15;;
4808;SDS011;2418;49.930;8.606;2024-02-16T14:09:05;8.40;;;2.90;;
4808;SDS011;2418;49.930;8.606;2024-02-16T14:11:38;7.80;;;2.72;;
4808;SDS011;2418;49.930;8.606;2024-02-16T14:14:06;3.40;;;2.58;;
4808;SDS011;2418;49.930;8.606;2024-02-16T14:16:32;6.30;;;3.87;;
4808;SDS011;2418;49.930;8.606;2024-02-16T14:18:59;6.97;;;3.20;;
4808;SDS011;2418;49.930;8.606;2024-02-16T14:21:26;3.63;;;3.33;;
4808;SDS011;2418;49.930;8.606;2024-02-16T14:23:51;5.05;;;3.13;;
4808;SDS011;2418;49.930;8.606;2024-02-16T14:26:17;7.38;;;4.50;;
4808;SDS011;2418;49.930;8.606;2024-02-16T14:28:45;4.70;;;3.30;;
4808;SDS011;2418;49.930;8.606;2024-02-16T14:31:11;7.28;;;3.47;;
4808;SDS011;2418;49.930;8.606;2024-02-16T14:33:39;6.85;;;3.70;;
4808;SDS011;2418;49.930;8.606;2024-02-16T14:36:05;4.63;;;3.95;;
4808;SDS011;2418;49.930;8.606;2024-02-16T14:38:34;8.63;;;4.00;;
4808;SDS011;2418;49.930;8.606;2024-02-16T14:41:01;10.00;;;4.20;;
4808;SDS011;2418;49.930;8.606;2024-02-16T14:43:29;6.15;;;3.58;;
4808;SDS011;2418;49.930;8.606;2024-02-16T14:45:58;5.20;;;3.25;;
4808;SDS011;2418;49.930;8.606;2024-02-16T14:48:26;4.65;;;2.55;;
4808;SDS011;2418;49.930;8.606;2024-02-16T14:50:53;5.32;;;3.10;;
4808;SDS011;2418;49.930;8.606;2024-02-16T14:53:19;4.80;;;2.60;;
4808;SDS011;2418;49.930;8.606;2024-02-16T14:55:46;4.80;;;2.90;;
4808;SDS011;2418;49.930;8.606;2024-02-16T14:58:12;5.28;;;3.17;;
4808;SDS011;2418;49.930;8.606;2024-02-16T15:00:38;4.50;;;2.90;;
4808;SDS011;2418;49.930;8.606;2024-02-16T15:03:04;5.55;;;3.25;;
4808;SDS011;2418;49.930;8.606;2024-02-16T15:05:30;5.80;;;3.33;;
4808;SDS011;2418;49.930;8.606;2024-02-16T15:07:56;3.78;;;3.10;;
4808;SDS011;2418;49.930;8.606;2024-02-16T15:10:22;6.82;;;2.90;;
4808;SDS011;2418;49.930;8.606;2024-02-16T15:12:49;20.27;;;9.60;;